sensor_id;sensor_type;location;lat;lon;timestamp;P1;durP1;ratioP1;P2;durP2;ratioP2
75450;SDS011;64029;48.244;9.188;2023-02-15T00:00:16;31.73;;;19.03;;
75450;SDS011;64029;48.244;9.188;2023-02-15T00:02:43;33.83;;;16.60;;
75450;SDS011;64029;48.244;9.188;2023-02-15T00:05:10;33.00;;;15.80;;
75450;SDS011;64029;48.244;9.188;2023-02-15T00:07:37;30.23;;;17.93;;
75450;SDS011;64029;48.244;9.188;2023-02-15T00:10:04;31.23;;;17.23;;
75450;SDS011;64029;48.244;9.188;2023-02-15T00:12:32;29.77;;;15.50;;
75450;SDS011;64029;48.244;9.188;2023-02-15T00:15:01;30.40;;;16.10;;
75450;SDS011;64029;48.244;9.188;2023-02-15T00:17:28;30.47;;;17.07;;
75450;SDS011;64029;48.244;9.188;2023-02-15T00:19:55;31.53;;;16.00;;
75450;SDS011;64029;48.244;9.188;2023-02-15T00:22:22;27.33;;;15.80;;
75450;SDS011;64029;48.244;9.188;2023-02-15T00:24:48;27.23;;;17.70;;
75450;SDS011;64029;48.244;9.188;2023-02-15T00:27:16;27.00;;;14.73;;
75450;SDS011;64029;48.244;9.188;2023-02-15T00:29:42;27.87;;;14.80;;
75450;SDS011;64029;48.244;9.188;2023-02-15T00:32:10;25.43;;;14.57;;
75450;SDS011;64029;48.244;9.188;2023-02-15T00:34:37;30.27;;;16.00;;
75450;SDS011;64029;48.244;9.188;2023-02-15T00:37:04;30.53;;;15.57;;
75450;SDS011;64029;48.244;9.188;2023-02-15T00:39:31;27.67;;;15.23;;
75450;SDS011;64029;48.244;9.188;2023-02-15T00:41:58;25.40;;;14.57;;
75450;SDS011;64029;48.244;9.188;2023-02-15T00:44:25;25.27;;;14.90;;
75450;SDS011;64029;48.244;9.188;2023-02-15T00:46:51;27.40;;;15.40;;
75450;SDS011;64029;48.244;9.188;2023-02-15T00:49:20;25.13;;;14.90;;
75450;SDS011;64029;48.244;9.188;2023-02-15T00:51:46;25.97;;;15.50;;
75450;SDS011;64029;48.244;9.188;2023-02-15T00:54:13;31.33;;;17.00;;
75450;SDS011;64029;48.244;9.188;2023-02-15T00:56:40;27.80;;;16.67;;
75450;SDS011;64029;48.244;9.188;2023-02-15T00:59:08;29.27;;;15.93;;
75450;SDS011;64029;48.244;9.188;2023-02-15T01:01:35;34.20;;;16.27;;
75450;SDS011;64029;48.244;9.188;2023-02-15T01:04:02;27.03;;;15.20;;
75450;SDS011;64029;48.244;9.188;2023-02-15T01:06:30;25.20;;;13.90;;
75450;SDS011;64029;48.244;9.188;2023-02-15T01:08:57;25.67;;;13.60;;
75450;SDS011;64029;48.244;9.188;2023-02-15T01:11:23;24.67;;;13.43;;
75450;SDS011;64029;48.244;9.188;2023-02-15T01:13:51;22.57;;;12.43;;
75450;SDS011;64029;48.244;9.188;2023-02-15T01:16:19;24.20;;;14.90;;
75450;SDS011;64029;48.244;9.188;2023-02-15T01:18:47;24.67;;;12.87;;
75450;SDS011;64029;48.244;9.188;2023-02-15T01:21:14;30.43;;;13.23;;
75450;SDS011;64029;48.244;9.188;2023-02-15T01:23:43;23.23;;;12.27;;
75450;SDS011;64029;48.244;9.188;2023-02-15T01:26:11;25.83;;;14.60;;
75450;SDS011;64029;48.244;9.188;2023-02-15T01:28:38;25.83;;;13.87;;
75450;SDS011;64029;48.244;9.188;2023-02-15T01:31:05;25.20;;;12.53;;
75450;SDS011;64029;48.244;9.188;2023-02-15T01:33:33;24.33;;;13.43;;
75450;SDS011;64029;48.244;9.188;2023-02-15T01:36:01;29.53;;;14.17;;
75450;SDS011;64029;48.244;9.188;2023-02-15T01:38:28;23.67;;;12.60;;
75450;SDS011;64029;48.244;9.188;2023-02-15T01:40:57;22.73;;;12.60;;
75450;SDS011;64029;48.244;9.188;2023-02-15T01:43:44;25.67;;;11.87;;
75450;SDS011;64029;48.244;9.188;2023-02-15T01:46:14;24.47;;;12.47;;
75450;SDS011;64029;48.244;9.188;2023-02-15T01:48:44;24.90;;;12.83;;
75450;SDS011;64029;48.244;9.188;2023-02-15T01:51:13;22.43;;;11.10;;
75450;SDS011;64029;48.244;9.188;2023-02-15T01:53:45;17.80;;;10.43;;
75450;SDS011;64029;48.244;9.188;2023-02-15T01:56:16;21.40;;;12.20;;
75450;SDS011;64029;48.244;9.188;2023-02-15T01:58:46;20.10;;;12.30;;
75450;SDS011;64029;48.244;9.188;2023-02-15T02:01:14;22.23;;;11.27;;
75450;SDS011;64029;48.244;9.188;2023-02-15T02:03:43;23.50;;;12.27;;
75450;SDS011;64029;48.244;9.188;2023-02-15T02:06:19;26.60;;;14.10;;
75450;SDS011;64029;48.244;9.188;2023-02-15T02:08:47;17.17;;;11.03;;
75450;SDS011;64029;48.244;9.188;2023-02-15T02:11:16;28.67;;;12.00;;
75450;SDS011;64029;48.244;9.188;2023-02-15T02:13:43;21.27;;;11.70;;
75450;SDS011;64029;48.244;9.188;2023-02-15T02:16:12;21.80;;;12.53;;
75450;SDS011;64029;48.244;9.188;2023-02-15T02:18:49;14.93;;;9.70;;
75450;SDS011;64029;48.244;9.188;2023-02-15T02:21:45;20.37;;;9.80;;
75450;SDS011;64029;48.244;9.188;2023-02-15T02:24:38;20.67;;;11.13;;
75450;SDS011;64029;48.244;9.188;2023-02-15T02:27:22;17.60;;;9.83;;
75450;SDS011;64029;48.244;9.188;2023-02-15T02:35:54;19.20;;;10.77;;
75450;SDS011;64029;48.244;9.188;2023-02-15T02:38:28;15.97;;;9.67;;
75450;SDS011;64029;48.244;9.188;2023-02-15T02:41:01;18.93;;;9.40;;
75450;SDS011;64029;48.244;9.188;2023-02-15T02:43:35;21.17;;;9.90;;
75450;SDS011;64029;48.244;9.188;2023-02-15T02:46:10;17.77;;;9.90;;
75450;SDS011;64029;48.244;9.188;2023-02-15T02:48:44;18.87;;;10.10;;
75450;SDS011;64029;48.244;9.188;2023-02-15T02:51:12;16.80;;;9.97;;
75450;SDS011;64029;48.244;9.188;2023-02-15T02:53:45;19.00;;;10.50;;
75450;SDS011;64029;48.244;9.188;2023-02-15T02:56:14;17.73;;;8.93;;
75450;SDS011;64029;48.244;9.188;2023-02-15T02:58:47;16.97;;;9.00;;
75450;SDS011;64029;48.244;9.188;2023-02-15T03:01:17;15.10;;;8.43;;
75450;SDS011;64029;48.244;9.188;2023-02-15T03:03:52;10.57;;;6.90;;
75450;SDS011;64029;48.244;9.188;2023-02-15T03:06:22;17.10;;;9.30;;
75450;SDS011;64029;48.244;9.188;2023-02-15T03:08:55;14.07;;;7.20;;
75450;SDS011;64029;48.244;9.188;2023-02-15T03:11:27;14.40;;;8.07;;
75450;SDS011;64029;48.244;9.188;2023-02-15T03:13:54;14.60;;;8.47;;
75450;SDS011;64029;48.244;9.188;2023-02-15T03:16:21;13.07;;;7.20;;
75450;SDS011;64029;48.244;9.188;2023-02-15T03:18:57;10.43;;;6.80;;
75450;SDS011;64029;48.244;9.188;2023-02-15T03:21:30;14.83;;;7.30;;
75450;SDS011;64029;48.244;9.188;2023-02-15T03:24:02;11.97;;;7.60;;
75450;SDS011;64029;48.244;9.188;2023-02-15T03:26:33;11.87;;;7.40;;
75450;SDS011;64029;48.244;9.188;2023-02-15T03:29:02;13.10;;;7.30;;
75450;SDS011;64029;48.244;9.188;2023-02-15T03:31:32;12.30;;;7.30;;
75450;SDS011;64029;48.244;9.188;2023-02-15T03:34:04;9.60;;;6.40;;
75450;SDS011;64029;48.244;9.188;2023-02-15T03:36:36;12.10;;;7.50;;
75450;SDS011;64029;48.244;9.188;2023-02-15T03:39:11;15.57;;;7.83;;
75450;SDS011;64029;48.244;9.188;2023-02-15T03:41:45;12.40;;;7.80;;
75450;SDS011;64029;48.244;9.188;2023-02-15T03:44:23;19.87;;;9.07;;
75450;SDS011;64029;48.244;9.188;2023-02-15T03:46:54;14.93;;;8.50;;
75450;SDS011;64029;48.244;9.188;2023-02-15T03:49:28;12.33;;;7.83;;
75450;SDS011;64029;48.244;9.188;2023-02-15T03:51:59;17.90;;;8.80;;
75450;SDS011;64029;48.244;9.188;2023-02-15T03:54:27;18.30;;;9.17;;
75450;SDS011;64029;48.244;9.188;2023-02-15T03:57:10;18.00;;;9.23;;
75450;SDS011;64029;48.244;9.188;2023-02-15T03:59:57;14.53;;;8.13;;
75450;SDS011;64029;48.244;9.188;2023-02-15T04:02:44;18.70;;;8.20;;
75450;SDS011;64029;48.244;9.188;2023-02-15T04:05:23;20.10;;;9.90;;
75450;SDS011;64029;48.244;9.188;2023-02-15T04:07:49;17.50;;;9.33;;
75450;SDS011;64029;48.244;9.188;2023-02-15T04:10:16;16.23;;;8.43;;
75450;SDS011;64029;48.244;9.188;2023-02-15T04:13:00;14.10;;;8.67;;
75450;SDS011;64029;48.244;9.188;2023-02-15T04:15:27;14.07;;;8.20;;
75450;SDS011;64029;48.244;9.188;2023-02-15T04:18:12;14.63;;;7.97;;
75450;SDS011;64029;48.244;9.188;2023-02-15T04:20:40;13.60;;;7.53;;
75450;SDS011;64029;48.244;9.188;2023-02-15T04:23:27;15.33;;;8.40;;
75450;SDS011;64029;48.244;9.188;2023-02-15T04:26:11;14.77;;;8.57;;
75450;SDS011;64029;48.244;9.188;2023-02-15T04:28:38;13.70;;;9.20;;
75450;SDS011;64029;48.244;9.188;2023-02-15T04:31:05;11.03;;;7.17;;
75450;SDS011;64029;48.244;9.188;2023-02-15T04:33:32;12.47;;;7.17;;
75450;SDS011;64029;48.244;9.188;2023-02-15T04:36:02;14.27;;;7.37;;
75450;SDS011;64029;48.244;9.188;2023-02-15T04:38:29;10.53;;;7.40;;
75450;SDS011;64029;48.244;9.188;2023-02-15T04:40:56;17.80;;;8.03;;
75450;SDS011;64029;48.244;9.188;2023-02-15T04:43:23;15.33;;;8.03;;
75450;SDS011;64029;48.244;9.188;2023-02-15T04:45:50;13.83;;;8.53;;
75450;SDS011;64029;48.244;9.188;2023-02-15T04:48:17;12.90;;;8.07;;
75450;SDS011;64029;48.244;9.188;2023-02-15T04:50:44;14.60;;;7.97;;
75450;SDS011;64029;48.244;9.188;2023-02-15T04:53:12;11.90;;;7.30;;
75450;SDS011;64029;48.244;9.188;2023-02-15T04:55:41;16.47;;;8.50;;
75450;SDS011;64029;48.244;9.188;2023-02-15T04:58:08;15.00;;;9.30;;
75450;SDS011;64029;48.244;9.188;2023-02-15T05:00:35;14.70;;;8.50;;
75450;SDS011;64029;48.244;9.188;2023-02-15T05:03:02;13.83;;;8.30;;
75450;SDS011;64029;48.244;9.188;2023-02-15T05:05:29;16.80;;;8.10;;
75450;SDS011;64029;48.244;9.188;2023-02-15T05:07:55;16.90;;;8.77;;
75450;SDS011;64029;48.244;9.188;2023-02-15T05:10:24;13.17;;;8.20;;
75450;SDS011;64029;48.244;9.188;2023-02-15T05:12:50;14.77;;;8.07;;
75450;SDS011;64029;48.244;9.188;2023-02-15T05:15:17;14.20;;;8.73;;
75450;SDS011;64029;48.244;9.188;2023-02-15T05:17:44;18.27;;;8.23;;
75450;SDS011;64029;48.244;9.188;2023-02-15T05:20:11;18.93;;;8.60;;
75450;SDS011;64029;48.244;9.188;2023-02-15T05:22:38;11.60;;;7.30;;
75450;SDS011;64029;48.244;9.188;2023-02-15T05:25:05;12.63;;;7.10;;
75450;SDS011;64029;48.244;9.188;2023-02-15T05:27:52;17.40;;;7.90;;
75450;SDS011;64029;48.244;9.188;2023-02-15T05:30:37;11.27;;;8.47;;
75450;SDS011;64029;48.244;9.188;2023-02-15T05:33:04;12.93;;;8.57;;
75450;SDS011;64029;48.244;9.188;2023-02-15T05:35:31;12.60;;;8.40;;
75450;SDS011;64029;48.244;9.188;2023-02-15T05:37:58;13.10;;;7.73;;
75450;SDS011;64029;48.244;9.188;2023-02-15T05:40:25;14.70;;;7.90;;
75450;SDS011;64029;48.244;9.188;2023-02-15T05:42:55;11.77;;;7.60;;
75450;SDS011;64029;48.244;9.188;2023-02-15T05:45:22;10.33;;;6.70;;
75450;SDS011;64029;48.244;9.188;2023-02-15T05:47:49;11.60;;;7.27;;
75450;SDS011;64029;48.244;9.188;2023-02-15T05:50:16;14.17;;;7.87;;
75450;SDS011;64029;48.244;9.188;2023-02-15T05:52:43;10.97;;;6.97;;
75450;SDS011;64029;48.244;9.188;2023-02-15T05:55:10;14.23;;;7.20;;
75450;SDS011;64029;48.244;9.188;2023-02-15T05:57:37;12.73;;;7.80;;
75450;SDS011;64029;48.244;9.188;2023-02-15T06:00:06;12.60;;;6.93;;
75450;SDS011;64029;48.244;9.188;2023-02-15T06:02:34;11.33;;;6.87;;
75450;SDS011;64029;48.244;9.188;2023-02-15T06:05:02;11.07;;;6.90;;
75450;SDS011;64029;48.244;9.188;2023-02-15T06:07:29;11.23;;;7.30;;
75450;SDS011;64029;48.244;9.188;2023-02-15T06:09:56;15.47;;;7.57;;
75450;SDS011;64029;48.244;9.188;2023-02-15T06:12:23;8.60;;;6.60;;
75450;SDS011;64029;48.244;9.188;2023-02-15T06:14:50;8.97;;;6.73;;
75450;SDS011;64029;48.244;9.188;2023-02-15T06:17:18;12.90;;;7.10;;
75450;SDS011;64029;48.244;9.188;2023-02-15T06:19:46;11.33;;;7.03;;
75450;SDS011;64029;48.244;9.188;2023-02-15T06:22:13;12.87;;;6.50;;
75450;SDS011;64029;48.244;9.188;2023-02-15T06:24:40;9.83;;;6.80;;
75450;SDS011;64029;48.244;9.188;2023-02-15T06:27:07;11.43;;;6.57;;
75450;SDS011;64029;48.244;9.188;2023-02-15T06:29:34;9.80;;;6.17;;
75450;SDS011;64029;48.244;9.188;2023-02-15T06:32:02;12.70;;;6.60;;
75450;SDS011;64029;48.244;9.188;2023-02-15T06:34:30;14.20;;;8.10;;
75450;SDS011;64029;48.244;9.188;2023-02-15T06:36:57;11.90;;;6.83;;
75450;SDS011;64029;48.244;9.188;2023-02-15T06:39:24;11.40;;;7.20;;
75450;SDS011;64029;48.244;9.188;2023-02-15T06:41:51;13.47;;;6.90;;
75450;SDS011;64029;48.244;9.188;2023-02-15T06:44:18;13.10;;;6.83;;
75450;SDS011;64029;48.244;9.188;2023-02-15T06:46:45;12.77;;;7.80;;
75450;SDS011;64029;48.244;9.188;2023-02-15T06:49:11;12.07;;;7.33;;
75450;SDS011;64029;48.244;9.188;2023-02-15T06:51:39;11.30;;;7.30;;
75450;SDS011;64029;48.244;9.188;2023-02-15T06:54:06;14.30;;;7.10;;
75450;SDS011;64029;48.244;9.188;2023-02-15T06:56:33;11.87;;;6.77;;
75450;SDS011;64029;48.244;9.188;2023-02-15T06:59:00;10.03;;;6.93;;
75450;SDS011;64029;48.244;9.188;2023-02-15T07:01:27;12.77;;;6.80;;
75450;SDS011;64029;48.244;9.188;2023-02-15T07:03:54;16.13;;;8.07;;
75450;SDS011;64029;48.244;9.188;2023-02-15T07:06:21;14.63;;;8.33;;
75450;SDS011;64029;48.244;9.188;2023-02-15T07:08:49;12.50;;;7.53;;
75450;SDS011;64029;48.244;9.188;2023-02-15T07:11:16;14.57;;;7.77;;
75450;SDS011;64029;48.244;9.188;2023-02-15T07:14:00;13.23;;;7.63;;
75450;SDS011;64029;48.244;9.188;2023-02-15T07:16:27;17.87;;;7.60;;
75450;SDS011;64029;48.244;9.188;2023-02-15T07:18:54;11.30;;;7.57;;
75450;SDS011;64029;48.244;9.188;2023-02-15T07:21:21;15.33;;;8.27;;
75450;SDS011;64029;48.244;9.188;2023-02-15T07:23:47;14.40;;;8.70;;
75450;SDS011;64029;48.244;9.188;2023-02-15T07:26:15;16.20;;;9.60;;
75450;SDS011;64029;48.244;9.188;2023-02-15T07:28:42;18.77;;;10.50;;
75450;SDS011;64029;48.244;9.188;2023-02-15T07:31:09;19.83;;;12.83;;
75450;SDS011;64029;48.244;9.188;2023-02-15T07:33:36;19.80;;;11.47;;
75450;SDS011;64029;48.244;9.188;2023-02-15T07:36:03;20.60;;;10.83;;
75450;SDS011;64029;48.244;9.188;2023-02-15T07:38:31;20.60;;;9.30;;
75450;SDS011;64029;48.244;9.188;2023-02-15T07:41:01;17.57;;;9.27;;
75450;SDS011;64029;48.244;9.188;2023-02-15T07:43:29;18.63;;;11.00;;
75450;SDS011;64029;48.244;9.188;2023-02-15T07:45:58;18.77;;;9.80;;
75450;SDS011;64029;48.244;9.188;2023-02-15T07:48:26;15.63;;;10.03;;
75450;SDS011;64029;48.244;9.188;2023-02-15T07:50:53;18.00;;;11.80;;
75450;SDS011;64029;48.244;9.188;2023-02-15T07:53:19;21.27;;;12.53;;
75450;SDS011;64029;48.244;9.188;2023-02-15T07:55:46;16.97;;;10.80;;
75450;SDS011;64029;48.244;9.188;2023-02-15T07:58:14;19.40;;;12.43;;
75450;SDS011;64029;48.244;9.188;2023-02-15T08:00:41;20.10;;;11.40;;
75450;SDS011;64029;48.244;9.188;2023-02-15T08:03:23;16.50;;;10.23;;
75450;SDS011;64029;48.244;9.188;2023-02-15T08:05:54;15.33;;;10.17;;
75450;SDS011;64029;48.244;9.188;2023-02-15T08:08:23;16.80;;;11.07;;
75450;SDS011;64029;48.244;9.188;2023-02-15T08:10:57;17.27;;;11.40;;
75450;SDS011;64029;48.244;9.188;2023-02-15T08:13:44;20.00;;;12.50;;
75450;SDS011;64029;48.244;9.188;2023-02-15T08:16:18;19.33;;;11.37;;
75450;SDS011;64029;48.244;9.188;2023-02-15T08:18:46;18.10;;;11.00;;
75450;SDS011;64029;48.244;9.188;2023-02-15T08:21:13;19.90;;;11.40;;
75450;SDS011;64029;48.244;9.188;2023-02-15T08:23:40;17.63;;;11.70;;
75450;SDS011;64029;48.244;9.188;2023-02-15T08:26:07;22.57;;;11.60;;
75450;SDS011;64029;48.244;9.188;2023-02-15T08:28:33;27.57;;;14.70;;
75450;SDS011;64029;48.244;9.188;2023-02-15T08:31:05;18.83;;;12.40;;
75450;SDS011;64029;48.244;9.188;2023-02-15T08:33:32;19.77;;;12.63;;
75450;SDS011;64029;48.244;9.188;2023-02-15T08:36:02;21.50;;;11.50;;
75450;SDS011;64029;48.244;9.188;2023-02-15T08:38:29;20.90;;;12.30;;
75450;SDS011;64029;48.244;9.188;2023-02-15T08:40:56;23.90;;;12.57;;
75450;SDS011;64029;48.244;9.188;2023-02-15T08:43:23;21.10;;;13.07;;
75450;SDS011;64029;48.244;9.188;2023-02-15T08:45:49;27.23;;;13.80;;
75450;SDS011;64029;48.244;9.188;2023-02-15T08:48:18;28.07;;;15.20;;
75450;SDS011;64029;48.244;9.188;2023-02-15T08:50:44;31.80;;;15.30;;
75450;SDS011;64029;48.244;9.188;2023-02-15T08:53:11;26.60;;;14.00;;
75450;SDS011;64029;48.244;9.188;2023-02-15T08:55:38;35.03;;;15.73;;
75450;SDS011;64029;48.244;9.188;2023-02-15T08:58:05;30.43;;;16.83;;
75450;SDS011;64029;48.244;9.188;2023-02-15T09:00:32;38.80;;;18.73;;
75450;SDS011;64029;48.244;9.188;2023-02-15T09:02:59;61.83;;;29.87;;
75450;SDS011;64029;48.244;9.188;2023-02-15T09:05:27;50.77;;;25.50;;
75450;SDS011;64029;48.244;9.188;2023-02-15T09:07:54;62.97;;;32.67;;
75450;SDS011;64029;48.244;9.188;2023-02-15T09:10:21;59.83;;;30.57;;
75450;SDS011;64029;48.244;9.188;2023-02-15T09:12:48;35.10;;;20.47;;
75450;SDS011;64029;48.244;9.188;2023-02-15T09:15:16;58.57;;;24.63;;
75450;SDS011;64029;48.244;9.188;2023-02-15T09:17:43;30.80;;;16.17;;
75450;SDS011;64029;48.244;9.188;2023-02-15T09:20:10;69.97;;;26.90;;
75450;SDS011;64029;48.244;9.188;2023-02-15T09:22:38;52.67;;;23.30;;
75450;SDS011;64029;48.244;9.188;2023-02-15T09:25:05;40.70;;;17.77;;
75450;SDS011;64029;48.244;9.188;2023-02-15T09:27:32;56.43;;;22.10;;
75450;SDS011;64029;48.244;9.188;2023-02-15T09:29:59;55.37;;;24.80;;
75450;SDS011;64029;48.244;9.188;2023-02-15T09:32:26;66.50;;;31.33;;
75450;SDS011;64029;48.244;9.188;2023-02-15T09:34:53;70.03;;;28.80;;
75450;SDS011;64029;48.244;9.188;2023-02-15T09:37:20;63.30;;;27.43;;
75450;SDS011;64029;48.244;9.188;2023-02-15T09:39:48;79.63;;;30.80;;
75450;SDS011;64029;48.244;9.188;2023-02-15T09:45:16;88.83;;;33.87;;
75450;SDS011;64029;48.244;9.188;2023-02-15T09:48:04;65.00;;;29.80;;
75450;SDS011;64029;48.244;9.188;2023-02-15T09:50:44;84.03;;;31.47;;
75450;SDS011;64029;48.244;9.188;2023-02-15T09:53:29;45.83;;;26.50;;
75450;SDS011;64029;48.244;9.188;2023-02-15T09:56:12;50.13;;;24.43;;
75450;SDS011;64029;48.244;9.188;2023-02-15T09:58:46;102.93;;;34.90;;
75450;SDS011;64029;48.244;9.188;2023-02-15T10:01:24;94.33;;;30.60;;
75450;SDS011;64029;48.244;9.188;2023-02-15T10:04:02;93.87;;;35.70;;
75450;SDS011;64029;48.244;9.188;2023-02-15T10:06:38;62.60;;;29.43;;
75450;SDS011;64029;48.244;9.188;2023-02-15T10:09:24;55.33;;;26.47;;
75450;SDS011;64029;48.244;9.188;2023-02-15T10:14:56;71.53;;;29.73;;
75450;SDS011;64029;48.244;9.188;2023-02-15T10:17:47;59.50;;;25.83;;
75450;SDS011;64029;48.244;9.188;2023-02-15T10:20:23;52.97;;;24.63;;
75450;SDS011;64029;48.244;9.188;2023-02-15T10:22:59;61.73;;;25.67;;
75450;SDS011;64029;48.244;9.188;2023-02-15T10:25:45;48.13;;;23.70;;
75450;SDS011;64029;48.244;9.188;2023-02-15T10:28:18;41.30;;;19.33;;
75450;SDS011;64029;48.244;9.188;2023-02-15T10:30:46;35.37;;;18.70;;
75450;SDS011;64029;48.244;9.188;2023-02-15T10:33:23;20.67;;;14.23;;
75450;SDS011;64029;48.244;9.188;2023-02-15T10:36:05;18.97;;;12.30;;
75450;SDS011;64029;48.244;9.188;2023-02-15T10:38:44;17.40;;;12.57;;
75450;SDS011;64029;48.244;9.188;2023-02-15T10:41:22;23.80;;;13.80;;
75450;SDS011;64029;48.244;9.188;2023-02-15T10:44:13;20.93;;;13.87;;
75450;SDS011;64029;48.244;9.188;2023-02-15T10:46:55;17.07;;;11.50;;
75450;SDS011;64029;48.244;9.188;2023-02-15T10:49:45;18.37;;;11.10;;
75450;SDS011;64029;48.244;9.188;2023-02-15T10:52:29;18.20;;;11.73;;
75450;SDS011;64029;48.244;9.188;2023-02-15T10:55:08;18.77;;;12.43;;
75450;SDS011;64029;48.244;9.188;2023-02-15T10:57:44;15.70;;;11.23;;
75450;SDS011;64029;48.244;9.188;2023-02-15T11:00:21;43.47;;;28.80;;
75450;SDS011;64029;48.244;9.188;2023-02-15T11:03:02;74.07;;;48.50;;
75450;SDS011;64029;48.244;9.188;2023-02-15T11:05:41;27.90;;;19.57;;
75450;SDS011;64029;48.244;9.188;2023-02-15T11:08:15;15.90;;;9.97;;
75450;SDS011;64029;48.244;9.188;2023-02-15T11:10:44;14.90;;;9.77;;
75450;SDS011;64029;48.244;9.188;2023-02-15T11:13:16;17.00;;;10.03;;
75450;SDS011;64029;48.244;9.188;2023-02-15T11:15:46;17.80;;;10.23;;
75450;SDS011;64029;48.244;9.188;2023-02-15T11:18:19;15.93;;;9.17;;
75450;SDS011;64029;48.244;9.188;2023-02-15T11:20:52;14.30;;;9.50;;
75450;SDS011;64029;48.244;9.188;2023-02-15T11:23:21;14.07;;;8.80;;
75450;SDS011;64029;48.244;9.188;2023-02-15T11:25:52;14.43;;;8.53;;
75450;SDS011;64029;48.244;9.188;2023-02-15T11:28:24;12.53;;;8.47;;
75450;SDS011;64029;48.244;9.188;2023-02-15T11:30:56;11.00;;;8.13;;
75450;SDS011;64029;48.244;9.188;2023-02-15T11:33:27;14.13;;;8.33;;
75450;SDS011;64029;48.244;9.188;2023-02-15T11:35:58;14.70;;;8.20;;
75450;SDS011;64029;48.244;9.188;2023-02-15T11:38:31;13.97;;;9.00;;
75450;SDS011;64029;48.244;9.188;2023-02-15T11:40:59;13.00;;;8.30;;
75450;SDS011;64029;48.244;9.188;2023-02-15T11:43:32;11.80;;;7.70;;
75450;SDS011;64029;48.244;9.188;2023-02-15T11:46:03;14.23;;;8.20;;
75450;SDS011;64029;48.244;9.188;2023-02-15T11:48:31;9.93;;;7.37;;
75450;SDS011;64029;48.244;9.188;2023-02-15T11:50:59;11.33;;;7.47;;
75450;SDS011;64029;48.244;9.188;2023-02-15T11:53:28;9.00;;;7.30;;
75450;SDS011;64029;48.244;9.188;2023-02-15T11:55:59;10.57;;;7.07;;
75450;SDS011;64029;48.244;9.188;2023-02-15T11:58:29;10.33;;;6.67;;
75450;SDS011;64029;48.244;9.188;2023-02-15T12:01:02;10.20;;;7.07;;
75450;SDS011;64029;48.244;9.188;2023-02-15T12:03:40;8.67;;;6.37;;
75450;SDS011;64029;48.244;9.188;2023-02-15T12:06:13;9.30;;;6.13;;
75450;SDS011;64029;48.244;9.188;2023-02-15T12:08:44;10.83;;;6.90;;
75450;SDS011;64029;48.244;9.188;2023-02-15T12:11:17;7.50;;;5.77;;
75450;SDS011;64029;48.244;9.188;2023-02-15T12:13:54;11.83;;;6.90;;
75450;SDS011;64029;48.244;9.188;2023-02-15T12:16:23;8.17;;;6.00;;
75450;SDS011;64029;48.244;9.188;2023-02-15T12:18:52;12.10;;;9.07;;
75450;SDS011;64029;48.244;9.188;2023-02-15T12:21:25;56.90;;;37.50;;
75450;SDS011;64029;48.244;9.188;2023-02-15T12:23:55;33.10;;;22.10;;
75450;SDS011;64029;48.244;9.188;2023-02-15T12:26:24;17.33;;;12.40;;
75450;SDS011;64029;48.244;9.188;2023-02-15T12:28:53;12.87;;;7.40;;
75450;SDS011;64029;48.244;9.188;2023-02-15T12:31:28;8.97;;;6.70;;
75450;SDS011;64029;48.244;9.188;2023-02-15T12:33:59;10.07;;;6.10;;
75450;SDS011;64029;48.244;9.188;2023-02-15T12:36:29;7.80;;;5.63;;
75450;SDS011;64029;48.244;9.188;2023-02-15T12:39:09;10.23;;;5.20;;
75450;SDS011;64029;48.244;9.188;2023-02-15T12:41:45;8.33;;;5.50;;
75450;SDS011;64029;48.244;9.188;2023-02-15T12:44:16;8.87;;;6.10;;
75450;SDS011;64029;48.244;9.188;2023-02-15T12:46:53;6.83;;;5.93;;
75450;SDS011;64029;48.244;9.188;2023-02-15T12:49:23;10.00;;;6.40;;
75450;SDS011;64029;48.244;9.188;2023-02-15T12:51:51;8.63;;;5.70;;
75450;SDS011;64029;48.244;9.188;2023-02-15T12:54:28;10.30;;;5.93;;
75450;SDS011;64029;48.244;9.188;2023-02-15T12:56:57;11.13;;;5.93;;
75450;SDS011;64029;48.244;9.188;2023-02-15T12:59:24;10.23;;;5.80;;
75450;SDS011;64029;48.244;9.188;2023-02-15T13:01:53;6.33;;;4.87;;
75450;SDS011;64029;48.244;9.188;2023-02-15T13:04:21;6.20;;;5.50;;
75450;SDS011;64029;48.244;9.188;2023-02-15T13:06:51;9.33;;;5.20;;
75450;SDS011;64029;48.244;9.188;2023-02-15T13:09:25;8.77;;;4.83;;
75450;SDS011;64029;48.244;9.188;2023-02-15T13:12:14;5.30;;;4.40;;
75450;SDS011;64029;48.244;9.188;2023-02-15T13:14:44;4.87;;;4.13;;
75450;SDS011;64029;48.244;9.188;2023-02-15T13:17:17;5.60;;;4.20;;
75450;SDS011;64029;48.244;9.188;2023-02-15T13:19:49;7.27;;;4.10;;
75450;SDS011;64029;48.244;9.188;2023-02-15T13:22:20;4.23;;;3.37;;
75450;SDS011;64029;48.244;9.188;2023-02-15T13:24:51;3.10;;;2.80;;
75450;SDS011;64029;48.244;9.188;2023-02-15T13:27:22;3.63;;;2.73;;
75450;SDS011;64029;48.244;9.188;2023-02-15T13:29:54;4.97;;;3.20;;
75450;SDS011;64029;48.244;9.188;2023-02-15T13:32:27;6.70;;;3.83;;
75450;SDS011;64029;48.244;9.188;2023-02-15T13:34:58;5.80;;;4.00;;
75450;SDS011;64029;48.244;9.188;2023-02-15T13:37:32;4.30;;;3.90;;
75450;SDS011;64029;48.244;9.188;2023-02-15T13:40:12;5.20;;;4.70;;
75450;SDS011;64029;48.244;9.188;2023-02-15T13:42:42;8.00;;;4.37;;
75450;SDS011;64029;48.244;9.188;2023-02-15T13:45:20;5.63;;;4.77;;
75450;SDS011;64029;48.244;9.188;2023-02-15T13:48:06;6.37;;;5.30;;
75450;SDS011;64029;48.244;9.188;2023-02-15T13:50:48;7.03;;;5.90;;
75450;SDS011;64029;48.244;9.188;2023-02-15T13:53:25;7.40;;;5.70;;
75450;SDS011;64029;48.244;9.188;2023-02-15T13:56:06;8.80;;;6.27;;
75450;SDS011;64029;48.244;9.188;2023-02-15T13:58:56;8.53;;;5.20;;
75450;SDS011;64029;48.244;9.188;2023-02-15T14:01:31;8.10;;;5.90;;
75450;SDS011;64029;48.244;9.188;2023-02-15T14:04:20;6.10;;;4.10;;
75450;SDS011;64029;48.244;9.188;2023-02-15T14:07:16;5.80;;;4.50;;
75450;SDS011;64029;48.244;9.188;2023-02-15T14:10:10;8.03;;;4.40;;
75450;SDS011;64029;48.244;9.188;2023-02-15T14:13:05;7.03;;;4.37;;
75450;SDS011;64029;48.244;9.188;2023-02-15T14:15:57;5.13;;;4.20;;
75450;SDS011;64029;48.244;9.188;2023-02-15T14:18:31;7.30;;;4.80;;
75450;SDS011;64029;48.244;9.188;2023-02-15T14:21:08;6.30;;;4.03;;
75450;SDS011;64029;48.244;9.188;2023-02-15T14:23:42;7.93;;;4.83;;
75450;SDS011;64029;48.244;9.188;2023-02-15T14:26:19;9.13;;;4.87;;
75450;SDS011;64029;48.244;9.188;2023-02-15T14:28:55;61.17;;;34.93;;
75450;SDS011;64029;48.244;9.188;2023-02-15T14:31:33;24.77;;;16.07;;
75450;SDS011;64029;48.244;9.188;2023-02-15T14:34:04;12.10;;;7.70;;
75450;SDS011;64029;48.244;9.188;2023-02-15T14:36:33;7.63;;;5.50;;
75450;SDS011;64029;48.244;9.188;2023-02-15T14:39:02;7.83;;;4.70;;
75450;SDS011;64029;48.244;9.188;2023-02-15T14:41:56;5.87;;;4.10;;
75450;SDS011;64029;48.244;9.188;2023-02-15T14:44:29;5.13;;;4.40;;
75450;SDS011;64029;48.244;9.188;2023-02-15T14:47:04;7.90;;;4.63;;
75450;SDS011;64029;48.244;9.188;2023-02-15T14:49:35;5.93;;;4.33;;
75450;SDS011;64029;48.244;9.188;2023-02-15T14:52:05;5.30;;;4.33;;
75450;SDS011;64029;48.244;9.188;2023-02-15T14:57:26;8.17;;;4.20;;
75450;SDS011;64029;48.244;9.188;2023-02-15T14:59:56;5.80;;;4.30;;
75450;SDS011;64029;48.244;9.188;2023-02-15T15:02:26;6.30;;;3.57;;
75450;SDS011;64029;48.244;9.188;2023-02-15T15:05:03;7.30;;;3.57;;
75450;SDS011;64029;48.244;9.188;2023-02-15T15:07:41;5.50;;;3.67;;
75450;SDS011;64029;48.244;9.188;2023-02-15T15:16:24;4.40;;;3.80;;